sensor_id;sensor_type;location;lat;lon;timestamp;P1;durP1;ratioP1;P2;durP2;ratioP2
34204;SDS011;20471;49.680;20.074;2022-07-18T00:00:47;3.33;;;1.70;;
34204;SDS011;20471;49.680;20.074;2022-07-18T00:03:14;4.60;;;1.82;;
34204;SDS011;20471;49.680;20.074;2022-07-18T00:05:41;4.53;;;2.00;;
34204;SDS011;20471;49.680;20.074;2022-07-18T00:08:07;4.35;;;1.55;;
34204;SDS011;20471;49.680;20.074;2022-07-18T00:10:34;5.97;;;1.98;;
34204;SDS011;20471;49.680;20.074;2022-07-18T00:13:00;3.42;;;1.77;;
34204;SDS011;20471;49.680;20.074;2022-07-18T00:15:27;3.10;;;1.50;;
34204;SDS011;20471;49.680;20.074;2022-07-18T00:17:53;4.70;;;1.87;;
34204;SDS011;20471;49.680;20.074;2022-07-18T00:20:20;2.40;;;1.70;;
34204;SDS011;20471;49.680;20.074;2022-07-18T00:22:47;3.27;;;1.87;;
34204;SDS011;20471;49.680;20.074;2022-07-18T00:25:13;4.10;;;2.00;;
34204;SDS011;20471;49.680;20.074;2022-07-18T00:27:39;2.92;;;1.67;;
34204;SDS011;20471;49.680;20.074;2022-07-18T00:30:06;2.45;;;1.90;;
34204;SDS011;20471;49.680;20.074;2022-07-18T00:32:35;4.90;;;1.75;;
34204;SDS011;20471;49.680;20.074;2022-07-18T00:35:01;4.72;;;1.80;;
34204;SDS011;20471;49.680;20.074;2022-07-18T00:37:28;2.55;;;1.72;;
34204;SDS011;20471;49.680;20.074;2022-07-18T00:39:55;7.55;;;2.33;;
34204;SDS011;20471;49.680;20.074;2022-07-18T00:42:21;4.42;;;1.70;;
34204;SDS011;20471;49.680;20.074;2022-07-18T00:44:52;4.90;;;2.12;;
34204;SDS011;20471;49.680;20.074;2022-07-18T00:49:47;2.08;;;1.77;;
34204;SDS011;20471;49.680;20.074;2022-07-18T00:52:13;4.30;;;1.77;;
34204;SDS011;20471;49.680;20.074;2022-07-18T00:54:40;2.12;;;1.57;;
34204;SDS011;20471;49.680;20.074;2022-07-18T00:57:07;3.58;;;2.10;;
34204;SDS011;20471;49.680;20.074;2022-07-18T00:59:34;4.83;;;2.02;;
34204;SDS011;20471;49.680;20.074;2022-07-18T01:02:20;2.87;;;1.57;;
34204;SDS011;20471;49.680;20.074;2022-07-18T01:04:46;3.67;;;1.92;;
34204;SDS011;20471;49.680;20.074;2022-07-18T01:07:13;3.08;;;1.72;;
34204;SDS011;20471;49.680;20.074;2022-07-18T01:09:40;4.45;;;1.45;;
34204;SDS011;20471;49.680;20.074;2022-07-18T01:12:06;3.52;;;1.67;;
34204;SDS011;20471;49.680;20.074;2022-07-18T01:14:34;1.85;;;1.40;;
34204;SDS011;20471;49.680;20.074;2022-07-18T01:17:02;3.62;;;1.60;;
34204;SDS011;20471;49.680;20.074;2022-07-18T01:19:35;4.92;;;1.45;;
34204;SDS011;20471;49.680;20.074;2022-07-18T01:22:02;4.05;;;1.70;;
34204;SDS011;20471;49.680;20.074;2022-07-18T01:24:28;2.58;;;1.60;;
34204;SDS011;20471;49.680;20.074;2022-07-18T01:26:55;2.60;;;1.70;;
34204;SDS011;20471;49.680;20.074;2022-07-18T01:29:21;3.75;;;1.70;;
34204;SDS011;20471;49.680;20.074;2022-07-18T01:31:48;4.87;;;1.67;;
34204;SDS011;20471;49.680;20.074;2022-07-18T01:34:15;4.60;;;1.92;;
34204;SDS011;20471;49.680;20.074;2022-07-18T01:36:48;4.30;;;1.75;;
34204;SDS011;20471;49.680;20.074;2022-07-18T01:39:15;4.78;;;1.57;;
34204;SDS011;20471;49.680;20.074;2022-07-18T01:41:42;3.37;;;1.80;;
34204;SDS011;20471;49.680;20.074;2022-07-18T01:44:08;2.72;;;1.65;;
34204;SDS011;20471;49.680;20.074;2022-07-18T01:46:35;2.60;;;1.80;;
34204;SDS011;20471;49.680;20.074;2022-07-18T01:49:01;6.00;;;1.92;;
34204;SDS011;20471;49.680;20.074;2022-07-18T01:51:28;4.70;;;1.85;;
34204;SDS011;20471;49.680;20.074;2022-07-18T01:53:56;2.83;;;1.80;;
34204;SDS011;20471;49.680;20.074;2022-07-18T01:56:25;4.65;;;1.60;;
34204;SDS011;20471;49.680;20.074;2022-07-18T01:58:52;4.12;;;1.80;;
34204;SDS011;20471;49.680;20.074;2022-07-18T02:01:18;3.77;;;1.62;;
34204;SDS011;20471;49.680;20.074;2022-07-18T02:03:45;4.17;;;1.65;;
34204;SDS011;20471;49.680;20.074;2022-07-18T02:06:11;5.47;;;1.87;;
34204;SDS011;20471;49.680;20.074;2022-07-18T02:08:38;4.78;;;1.95;;
34204;SDS011;20471;49.680;20.074;2022-07-18T02:11:04;2.20;;;1.40;;
34204;SDS011;20471;49.680;20.074;2022-07-18T02:13:31;2.30;;;1.50;;
34204;SDS011;20471;49.680;20.074;2022-07-18T02:15:57;2.80;;;1.70;;
34204;SDS011;20471;49.680;20.074;2022-07-18T02:18:24;2.85;;;1.70;;
34204;SDS011;20471;49.680;20.074;2022-07-18T02:20:51;4.25;;;2.12;;
34204;SDS011;20471;49.680;20.074;2022-07-18T02:23:17;2.67;;;1.92;;
34204;SDS011;20471;49.680;20.074;2022-07-18T02:25:44;10.68;;;2.30;;
34204;SDS011;20471;49.680;20.074;2022-07-18T02:28:10;3.40;;;1.72;;
34204;SDS011;20471;49.680;20.074;2022-07-18T02:30:37;3.45;;;1.70;;
34204;SDS011;20471;49.680;20.074;2022-07-18T02:33:03;3.27;;;1.95;;
34204;SDS011;20471;49.680;20.074;2022-07-18T02:35:30;3.40;;;1.70;;
34204;SDS011;20471;49.680;20.074;2022-07-18T02:37:56;2.85;;;1.85;;
34204;SDS011;20471;49.680;20.074;2022-07-18T02:40:23;1.82;;;1.52;;
34204;SDS011;20471;49.680;20.074;2022-07-18T02:42:50;2.15;;;1.75;;
34204;SDS011;20471;49.680;20.074;2022-07-18T02:45:16;4.95;;;2.00;;
34204;SDS011;20471;49.680;20.074;2022-07-18T02:47:42;5.70;;;1.87;;
34204;SDS011;20471;49.680;20.074;2022-07-18T02:50:09;3.27;;;1.70;;
34204;SDS011;20471;49.680;20.074;2022-07-18T02:52:38;4.35;;;2.02;;
34204;SDS011;20471;49.680;20.074;2022-07-18T02:55:06;2.98;;;1.72;;
34204;SDS011;20471;49.680;20.074;2022-07-18T02:57:34;1.92;;;1.40;;
34204;SDS011;20471;49.680;20.074;2022-07-18T03:00:01;4.67;;;1.90;;
34204;SDS011;20471;49.680;20.074;2022-07-18T03:02:30;8.30;;;1.70;;
34204;SDS011;20471;49.680;20.074;2022-07-18T03:04:57;2.70;;;1.80;;
34204;SDS011;20471;49.680;20.074;2022-07-18T03:07:23;5.35;;;2.40;;
34204;SDS011;20471;49.680;20.074;2022-07-18T03:09:50;5.05;;;2.77;;
34204;SDS011;20471;49.680;20.074;2022-07-18T03:12:16;4.85;;;4.10;;
34204;SDS011;20471;49.680;20.074;2022-07-18T03:14:43;6.72;;;4.10;;
34204;SDS011;20471;49.680;20.074;2022-07-18T03:17:10;4.83;;;4.30;;
34204;SDS011;20471;49.680;20.074;2022-07-18T03:19:37;7.20;;;3.37;;
34204;SDS011;20471;49.680;20.074;2022-07-18T03:22:03;3.98;;;2.27;;
34204;SDS011;20471;49.680;20.074;2022-07-18T03:24:31;3.30;;;2.25;;
34204;SDS011;20471;49.680;20.074;2022-07-18T03:26:58;4.08;;;2.42;;
34204;SDS011;20471;49.680;20.074;2022-07-18T03:29:25;4.33;;;1.95;;
34204;SDS011;20471;49.680;20.074;2022-07-18T03:31:52;4.22;;;1.90;;
34204;SDS011;20471;49.680;20.074;2022-07-18T03:34:20;3.27;;;2.25;;
34204;SDS011;20471;49.680;20.074;2022-07-18T03:36:46;4.83;;;2.00;;
34204;SDS011;20471;49.680;20.074;2022-07-18T03:39:13;6.42;;;1.80;;
34204;SDS011;20471;49.680;20.074;2022-07-18T03:41:40;4.75;;;1.65;;
34204;SDS011;20471;49.680;20.074;2022-07-18T03:44:07;3.47;;;1.82;;
34204;SDS011;20471;49.680;20.074;2022-07-18T03:46:34;2.08;;;1.62;;
34204;SDS011;20471;49.680;20.074;2022-07-18T03:49:01;3.42;;;1.65;;
34204;SDS011;20471;49.680;20.074;2022-07-18T03:51:28;5.30;;;2.08;;
34204;SDS011;20471;49.680;20.074;2022-07-18T03:53:55;2.87;;;2.00;;
34204;SDS011;20471;49.680;20.074;2022-07-18T03:56:21;4.85;;;2.15;;
34204;SDS011;20471;49.680;20.074;2022-07-18T03:58:48;4.58;;;2.33;;
34204;SDS011;20471;49.680;20.074;2022-07-18T04:01:14;6.60;;;3.33;;
34204;SDS011;20471;49.680;20.074;2022-07-18T04:03:41;8.40;;;5.62;;
34204;SDS011;20471;49.680;20.074;2022-07-18T04:06:08;12.88;;;7.58;;
34204;SDS011;20471;49.680;20.074;2022-07-18T04:08:35;14.05;;;7.22;;
34204;SDS011;20471;49.680;20.074;2022-07-18T04:11:01;12.58;;;6.67;;
34204;SDS011;20471;49.680;20.074;2022-07-18T04:13:28;6.95;;;4.30;;
34204;SDS011;20471;49.680;20.074;2022-07-18T04:15:54;5.10;;;3.87;;
34204;SDS011;20471;49.680;20.074;2022-07-18T04:18:21;8.15;;;4.12;;
34204;SDS011;20471;49.680;20.074;2022-07-18T04:20:47;7.40;;;3.20;;
34204;SDS011;20471;49.680;20.074;2022-07-18T04:23:15;5.00;;;2.65;;
34204;SDS011;20471;49.680;20.074;2022-07-18T04:25:43;3.30;;;2.50;;
34204;SDS011;20471;49.680;20.074;2022-07-18T04:28:10;3.90;;;2.70;;
34204;SDS011;20471;49.680;20.074;2022-07-18T04:30:39;3.52;;;2.60;;
34204;SDS011;20471;49.680;20.074;2022-07-18T04:33:07;5.05;;;2.85;;
34204;SDS011;20471;49.680;20.074;2022-07-18T04:35:36;3.98;;;2.75;;
34204;SDS011;20471;49.680;20.074;2022-07-18T04:38:05;7.30;;;4.12;;
34204;SDS011;20471;49.680;20.074;2022-07-18T04:40:33;11.73;;;8.20;;
34204;SDS011;20471;49.680;20.074;2022-07-18T04:43:00;12.88;;;8.75;;
34204;SDS011;20471;49.680;20.074;2022-07-18T04:45:27;12.00;;;7.60;;
34204;SDS011;20471;49.680;20.074;2022-07-18T04:47:53;8.95;;;5.08;;
34204;SDS011;20471;49.680;20.074;2022-07-18T04:50:23;5.10;;;3.77;;
34204;SDS011;20471;49.680;20.074;2022-07-18T04:52:50;4.55;;;2.80;;
34204;SDS011;20471;49.680;20.074;2022-07-18T04:55:18;6.85;;;3.27;;
34204;SDS011;20471;49.680;20.074;2022-07-18T04:57:47;6.87;;;2.95;;
34204;SDS011;20471;49.680;20.074;2022-07-18T05:00:15;5.03;;;2.80;;
34204;SDS011;20471;49.680;20.074;2022-07-18T05:02:45;3.92;;;2.80;;
34204;SDS011;20471;49.680;20.074;2022-07-18T05:05:15;6.60;;;2.85;;
34204;SDS011;20471;49.680;20.074;2022-07-18T05:07:44;4.92;;;2.22;;
34204;SDS011;20471;49.680;20.074;2022-07-18T05:10:12;5.28;;;2.83;;
34204;SDS011;20471;49.680;20.074;2022-07-18T05:12:42;4.37;;;2.40;;
34204;SDS011;20471;49.680;20.074;2022-07-18T05:15:12;6.22;;;2.50;;
34204;SDS011;20471;49.680;20.074;2022-07-18T05:17:41;3.35;;;2.15;;
34204;SDS011;20471;49.680;20.074;2022-07-18T05:20:10;3.47;;;2.37;;
34204;SDS011;20471;49.680;20.074;2022-07-18T05:22:40;7.15;;;2.65;;
34204;SDS011;20471;49.680;20.074;2022-07-18T05:25:08;7.03;;;2.70;;
34204;SDS011;20471;49.680;20.074;2022-07-18T05:27:36;5.10;;;2.87;;
34204;SDS011;20471;49.680;20.074;2022-07-18T05:30:04;4.30;;;2.47;;
34204;SDS011;20471;49.680;20.074;2022-07-18T05:32:33;7.12;;;3.00;;
34204;SDS011;20471;49.680;20.074;2022-07-18T05:35:00;4.53;;;2.30;;
34204;SDS011;20471;49.680;20.074;2022-07-18T05:37:26;5.72;;;2.52;;
34204;SDS011;20471;49.680;20.074;2022-07-18T05:39:53;5.33;;;2.95;;
34204;SDS011;20471;49.680;20.074;2022-07-18T05:42:20;6.08;;;2.72;;
34204;SDS011;20471;49.680;20.074;2022-07-18T05:44:46;5.05;;;2.62;;
34204;SDS011;20471;49.680;20.074;2022-07-18T05:47:13;6.67;;;2.67;;
34204;SDS011;20471;49.680;20.074;2022-07-18T05:49:39;5.87;;;2.45;;
34204;SDS011;20471;49.680;20.074;2022-07-18T05:52:06;7.78;;;2.25;;
34204;SDS011;20471;49.680;20.074;2022-07-18T05:54:33;5.33;;;2.42;;
34204;SDS011;20471;49.680;20.074;2022-07-18T05:56:59;4.35;;;2.05;;
34204;SDS011;20471;49.680;20.074;2022-07-18T05:59:27;6.20;;;2.17;;
34204;SDS011;20471;49.680;20.074;2022-07-18T06:01:53;7.45;;;1.90;;
34204;SDS011;20471;49.680;20.074;2022-07-18T06:04:20;6.12;;;2.15;;
34204;SDS011;20471;49.680;20.074;2022-07-18T06:06:46;5.05;;;2.17;;
34204;SDS011;20471;49.680;20.074;2022-07-18T06:09:15;4.45;;;2.15;;
34204;SDS011;20471;49.680;20.074;2022-07-18T06:11:43;5.08;;;1.90;;
34204;SDS011;20471;49.680;20.074;2022-07-18T06:14:10;4.67;;;2.17;;
34204;SDS011;20471;49.680;20.074;2022-07-18T06:16:37;4.33;;;2.05;;
34204;SDS011;20471;49.680;20.074;2022-07-18T06:19:03;3.15;;;2.10;;
34204;SDS011;20471;49.680;20.074;2022-07-18T06:21:30;3.95;;;2.00;;
34204;SDS011;20471;49.680;20.074;2022-07-18T06:23:57;5.17;;;1.70;;
34204;SDS011;20471;49.680;20.074;2022-07-18T06:26:23;3.20;;;2.10;;
34204;SDS011;20471;49.680;20.074;2022-07-18T06:28:50;4.30;;;1.90;;
34204;SDS011;20471;49.680;20.074;2022-07-18T06:31:16;3.55;;;2.00;;
34204;SDS011;20471;49.680;20.074;2022-07-18T06:33:43;6.05;;;2.42;;
34204;SDS011;20471;49.680;20.074;2022-07-18T06:36:10;4.75;;;2.12;;
34204;SDS011;20471;49.680;20.074;2022-07-18T06:38:37;3.45;;;2.22;;
34204;SDS011;20471;49.680;20.074;2022-07-18T06:41:05;3.50;;;1.80;;
34204;SDS011;20471;49.680;20.074;2022-07-18T06:43:32;5.42;;;2.20;;
34204;SDS011;20471;49.680;20.074;2022-07-18T06:45:59;5.95;;;2.00;;
34204;SDS011;20471;49.680;20.074;2022-07-18T06:48:25;3.67;;;1.90;;
34204;SDS011;20471;49.680;20.074;2022-07-18T06:50:54;5.78;;;2.10;;
34204;SDS011;20471;49.680;20.074;2022-07-18T06:53:20;7.20;;;2.10;;
34204;SDS011;20471;49.680;20.074;2022-07-18T06:55:47;7.90;;;1.90;;
34204;SDS011;20471;49.680;20.074;2022-07-18T06:58:13;3.67;;;1.90;;
34204;SDS011;20471;49.680;20.074;2022-07-18T07:00:40;3.95;;;1.80;;
34204;SDS011;20471;49.680;20.074;2022-07-18T07:03:06;3.90;;;2.00;;
34204;SDS011;20471;49.680;20.074;2022-07-18T07:05:33;3.98;;;1.90;;
34204;SDS011;20471;49.680;20.074;2022-07-18T07:07:59;3.90;;;2.05;;
34204;SDS011;20471;49.680;20.074;2022-07-18T07:10:26;4.15;;;1.90;;
34204;SDS011;20471;49.680;20.074;2022-07-18T07:12:52;4.62;;;2.00;;
34204;SDS011;20471;49.680;20.074;2022-07-18T07:15:20;4.75;;;1.67;;
34204;SDS011;20471;49.680;20.074;2022-07-18T07:17:49;3.87;;;2.17;;
34204;SDS011;20471;49.680;20.074;2022-07-18T07:20:17;3.95;;;1.85;;
34204;SDS011;20471;49.680;20.074;2022-07-18T07:22:53;4.55;;;2.20;;
34204;SDS011;20471;49.680;20.074;2022-07-18T07:25:22;7.65;;;2.30;;
34204;SDS011;20471;49.680;20.074;2022-07-18T07:27:51;3.55;;;1.92;;
34204;SDS011;20471;49.680;20.074;2022-07-18T07:30:19;3.87;;;1.90;;
34204;SDS011;20471;49.680;20.074;2022-07-18T07:32:46;3.62;;;1.85;;
34204;SDS011;20471;49.680;20.074;2022-07-18T07:35:13;4.12;;;2.30;;
34204;SDS011;20471;49.680;20.074;2022-07-18T07:37:43;4.20;;;2.05;;
34204;SDS011;20471;49.680;20.074;2022-07-18T07:40:13;7.70;;;2.22;;
34204;SDS011;20471;49.680;20.074;2022-07-18T07:42:41;3.87;;;1.98;;
34204;SDS011;20471;49.680;20.074;2022-07-18T07:45:09;4.80;;;1.70;;
34204;SDS011;20471;49.680;20.074;2022-07-18T07:47:37;4.12;;;1.75;;
34204;SDS011;20471;49.680;20.074;2022-07-18T07:50:05;3.52;;;2.05;;
34204;SDS011;20471;49.680;20.074;2022-07-18T07:52:33;4.22;;;1.42;;
34204;SDS011;20471;49.680;20.074;2022-07-18T07:55:00;1.90;;;1.47;;
34204;SDS011;20471;49.680;20.074;2022-07-18T07:57:27;3.35;;;1.75;;
34204;SDS011;20471;49.680;20.074;2022-07-18T07:59:54;4.67;;;2.00;;
34204;SDS011;20471;49.680;20.074;2022-07-18T08:02:20;2.35;;;1.37;;
34204;SDS011;20471;49.680;20.074;2022-07-18T08:04:47;5.03;;;1.50;;
34204;SDS011;20471;49.680;20.074;2022-07-18T08:07:15;3.08;;;1.37;;
34204;SDS011;20471;49.680;20.074;2022-07-18T08:09:42;3.47;;;1.50;;
34204;SDS011;20471;49.680;20.074;2022-07-18T08:12:09;2.80;;;1.50;;
34204;SDS011;20471;49.680;20.074;2022-07-18T08:14:36;4.40;;;1.60;;
34204;SDS011;20471;49.680;20.074;2022-07-18T08:17:04;3.77;;;1.60;;
34204;SDS011;20471;49.680;20.074;2022-07-18T08:19:30;3.77;;;1.30;;
34204;SDS011;20471;49.680;20.074;2022-07-18T08:21:57;3.12;;;1.40;;
34204;SDS011;20471;49.680;20.074;2022-07-18T08:24:23;4.87;;;1.47;;
34204;SDS011;20471;49.680;20.074;2022-07-18T08:26:50;3.47;;;1.82;;
34204;SDS011;20471;49.680;20.074;2022-07-18T08:29:17;6.15;;;1.70;;
34204;SDS011;20471;49.680;20.074;2022-07-18T08:31:43;2.22;;;1.40;;
34204;SDS011;20471;49.680;20.074;2022-07-18T08:34:09;3.65;;;1.30;;
34204;SDS011;20471;49.680;20.074;2022-07-18T08:36:36;3.55;;;1.57;;
34204;SDS011;20471;49.680;20.074;2022-07-18T08:39:03;2.98;;;1.10;;
34204;SDS011;20471;49.680;20.074;2022-07-18T08:41:29;2.85;;;1.30;;
34204;SDS011;20471;49.680;20.074;2022-07-18T08:43:56;2.75;;;1.02;;
34204;SDS011;20471;49.680;20.074;2022-07-18T08:46:24;4.47;;;1.55;;
34204;SDS011;20471;49.680;20.074;2022-07-18T08:48:52;2.90;;;1.40;;
34204;SDS011;20471;49.680;20.074;2022-07-18T08:51:20;4.62;;;1.87;;
34204;SDS011;20471;49.680;20.074;2022-07-18T08:53:48;3.45;;;1.50;;
34204;SDS011;20471;49.680;20.074;2022-07-18T08:56:17;2.05;;;1.47;;
34204;SDS011;20471;49.680;20.074;2022-07-18T08:58:44;2.87;;;1.60;;
34204;SDS011;20471;49.680;20.074;2022-07-18T09:01:10;3.35;;;1.85;;
34204;SDS011;20471;49.680;20.074;2022-07-18T09:03:37;3.12;;;1.87;;
34204;SDS011;20471;49.680;20.074;2022-07-18T09:06:04;8.18;;;2.22;;
34204;SDS011;20471;49.680;20.074;2022-07-18T09:08:37;4.40;;;1.72;;
34204;SDS011;20471;49.680;20.074;2022-07-18T09:13:38;4.05;;;1.32;;
34204;SDS011;20471;49.680;20.074;2022-07-18T09:18:44;3.87;;;1.60;;
34204;SDS011;20471;49.680;20.074;2022-07-18T09:21:14;1.27;;;1.15;;
34204;SDS011;20471;49.680;20.074;2022-07-18T09:23:44;4.97;;;1.60;;
34204;SDS011;20471;49.680;20.074;2022-07-18T09:29:01;1.65;;;1.20;;
34204;SDS011;20471;49.680;20.074;2022-07-18T09:31:29;2.55;;;1.40;;
34204;SDS011;20471;49.680;20.074;2022-07-18T09:33:57;3.92;;;1.22;;
34204;SDS011;20471;49.680;20.074;2022-07-18T09:36:27;3.30;;;1.30;;
34204;SDS011;20471;49.680;20.074;2022-07-18T09:38:54;4.42;;;1.70;;
34204;SDS011;20471;49.680;20.074;2022-07-18T09:41:25;2.10;;;1.35;;
34204;SDS011;20471;49.680;20.074;2022-07-18T09:43:55;3.35;;;1.40;;
34204;SDS011;20471;49.680;20.074;2022-07-18T09:46:22;3.50;;;1.47;;
34204;SDS011;20471;49.680;20.074;2022-07-18T09:49:07;3.37;;;1.52;;
34204;SDS011;20471;49.680;20.074;2022-07-18T09:51:36;2.95;;;1.30;;
34204;SDS011;20471;49.680;20.074;2022-07-18T09:54:02;1.60;;;1.27;;
34204;SDS011;20471;49.680;20.074;2022-07-18T09:56:29;4.40;;;1.47;;
34204;SDS011;20471;49.680;20.074;2022-07-18T09:58:58;2.47;;;1.50;;
34204;SDS011;20471;49.680;20.074;2022-07-18T10:01:28;2.90;;;1.40;;
34204;SDS011;20471;49.680;20.074;2022-07-18T10:03:55;1.98;;;1.17;;
34204;SDS011;20471;49.680;20.074;2022-07-18T10:06:24;3.25;;;1.45;;
34204;SDS011;20471;49.680;20.074;2022-07-18T10:08:51;1.95;;;1.10;;
34204;SDS011;20471;49.680;20.074;2022-07-18T10:11:21;1.10;;;0.90;;
34204;SDS011;20471;49.680;20.074;2022-07-18T10:13:49;2.05;;;1.12;;
34204;SDS011;20471;49.680;20.074;2022-07-18T10:16:18;2.52;;;1.45;;
34204;SDS011;20471;49.680;20.074;2022-07-18T10:18:44;3.25;;;1.42;;
34204;SDS011;20471;49.680;20.074;2022-07-18T10:21:11;3.25;;;1.40;;
34204;SDS011;20471;49.680;20.074;2022-07-18T10:23:40;3.95;;;1.40;;
34204;SDS011;20471;49.680;20.074;2022-07-18T10:36:39;2.17;;;1.20;;
34204;SDS011;20471;49.680;20.074;2022-07-18T10:39:20;1.95;;;1.30;;
34204;SDS011;20471;49.680;20.074;2022-07-18T10:44:44;4.50;;;1.30;;
34204;SDS011;20471;49.680;20.074;2022-07-18T10:47:17;3.27;;;1.25;;
34204;SDS011;20471;49.680;20.074;2022-07-18T10:58:14;1.82;;;1.27;;
34204;SDS011;20471;49.680;20.074;2022-07-18T11:16:13;4.22;;;1.30;;
34204;SDS011;20471;49.680;20.074;2022-07-18T11:21:23;2.50;;;1.20;;
34204;SDS011;20471;49.680;20.074;2022-07-18T11:24:03;3.02;;;1.30;;
34204;SDS011;20471;49.680;20.074;2022-07-18T11:26:33;2.85;;;1.30;;
34204;SDS011;20471;49.680;20.074;2022-07-18T11:29:02;3.35;;;1.50;;
34204;SDS011;20471;49.680;20.074;2022-07-18T11:31:31;4.50;;;1.55;;
34204;SDS011;20471;49.680;20.074;2022-07-18T11:34:10;2.42;;;1.27;;
34204;SDS011;20471;49.680;20.074;2022-07-18T11:36:38;2.95;;;1.50;;
34204;SDS011;20471;49.680;20.074;2022-07-18T11:39:07;2.85;;;1.10;;
34204;SDS011;20471;49.680;20.074;2022-07-18T11:41:38;4.10;;;1.10;;
34204;SDS011;20471;49.680;20.074;2022-07-18T11:44:17;3.15;;;1.35;;
34204;SDS011;20471;49.680;20.074;2022-07-18T11:46:50;5.03;;;1.47;;
34204;SDS011;20471;49.680;20.074;2022-07-18T11:49:35;2.62;;;1.40;;
34204;SDS011;20471;49.680;20.074;2022-07-18T11:52:03;4.17;;;1.10;;
34204;SDS011;20471;49.680;20.074;2022-07-18T11:54:31;2.42;;;1.20;;
34204;SDS011;20471;49.680;20.074;2022-07-18T11:56:59;2.80;;;1.30;;
34204;SDS011;20471;49.680;20.074;2022-07-18T11:59:37;2.62;;;1.25;;
34204;SDS011;20471;49.680;20.074;2022-07-18T12:02:07;3.02;;;1.30;;
34204;SDS011;20471;49.680;20.074;2022-07-18T12:04:34;2.15;;;0.93;;
34204;SDS011;20471;49.680;20.074;2022-07-18T12:09:52;2.92;;;1.47;;
34204;SDS011;20471;49.680;20.074;2022-07-18T12:12:21;4.50;;;1.50;;
34204;SDS011;20471;49.680;20.074;2022-07-18T12:14:59;4.65;;;1.27;;
34204;SDS011;20471;49.680;20.074;2022-07-18T12:17:29;5.83;;;1.45;;
34204;SDS011;20471;49.680;20.074;2022-07-18T12:28:24;3.17;;;1.55;;
34204;SDS011;20471;49.680;20.074;2022-07-18T12:30:51;1.50;;;1.00;;
34204;SDS011;20471;49.680;20.074;2022-07-18T12:33:18;3.85;;;1.90;;
34204;SDS011;20471;49.680;20.074;2022-07-18T12:35:45;2.83;;;1.40;;
34204;SDS011;20471;49.680;20.074;2022-07-18T12:38:25;4.70;;;1.62;;
34204;SDS011;20471;49.680;20.074;2022-07-18T12:40:55;2.30;;;1.30;;
34204;SDS011;20471;49.680;20.074;2022-07-18T12:43:26;2.30;;;1.20;;
34204;SDS011;20471;49.680;20.074;2022-07-18T12:46:00;2.27;;;1.40;;
34204;SDS011;20471;49.680;20.074;2022-07-18T12:48:28;2.95;;;1.35;;
34204;SDS011;20471;49.680;20.074;2022-07-18T12:50:58;4.30;;;1.45;;
34204;SDS011;20471;49.680;20.074;2022-07-18T12:53:28;4.12;;;1.30;;
34204;SDS011;20471;49.680;20.074;2022-07-18T12:55:57;4.53;;;1.65;;
34204;SDS011;20471;49.680;20.074;2022-07-18T12:58:24;2.50;;;1.40;;
34204;SDS011;20471;49.680;20.074;2022-07-18T13:00:51;3.65;;;1.50;;
34204;SDS011;20471;49.680;20.074;2022-07-18T13:03:20;3.65;;;1.50;;
34204;SDS011;20471;49.680;20.074;2022-07-18T13:05:46;2.27;;;1.17;;
34204;SDS011;20471;49.680;20.074;2022-07-18T13:08:14;3.92;;;1.35;;
34204;SDS011;20471;49.680;20.074;2022-07-18T13:10:41;2.92;;;1.57;;
34204;SDS011;20471;49.680;20.074;2022-07-18T13:13:08;2.25;;;1.15;;
34204;SDS011;20471;49.680;20.074;2022-07-18T13:15:35;4.00;;;1.65;;
34204;SDS011;20471;49.680;20.074;2022-07-18T13:18:03;1.80;;;1.20;;
34204;SDS011;20471;49.680;20.074;2022-07-18T13:20:31;3.47;;;1.30;;
34204;SDS011;20471;49.680;20.074;2022-07-18T13:22:57;2.67;;;1.47;;
34204;SDS011;20471;49.680;20.074;2022-07-18T13:25:29;2.65;;;1.30;;
34204;SDS011;20471;49.680;20.074;2022-07-18T13:27:58;3.37;;;1.27;;
34204;SDS011;20471;49.680;20.074;2022-07-18T13:30:24;3.75;;;1.67;;
34204;SDS011;20471;49.680;20.074;2022-07-18T13:32:51;3.62;;;1.70;;
34204;SDS011;20471;49.680;20.074;2022-07-18T13:35:18;2.98;;;1.45;;
34204;SDS011;20471;49.680;20.074;2022-07-18T13:37:44;3.05;;;1.42;;
34204;SDS011;20471;49.680;20.074;2022-07-18T13:40:12;3.50;;;1.17;;
34204;SDS011;20471;49.680;20.074;2022-07-18T13:42:39;4.35;;;1.42;;
34204;SDS011;20471;49.680;20.074;2022-07-18T13:45:06;7.05;;;1.40;;
34204;SDS011;20471;49.680;20.074;2022-07-18T13:47:34;2.05;;;1.47;;
34204;SDS011;20471;49.680;20.074;2022-07-18T13:50:00;4.42;;;1.52;;
34204;SDS011;20471;49.680;20.074;2022-07-18T13:52:27;3.90;;;1.50;;
34204;SDS011;20471;49.680;20.074;2022-07-18T13:54:54;2.80;;;1.50;;
34204;SDS011;20471;49.680;20.074;2022-07-18T13:57:21;2.52;;;1.40;;
34204;SDS011;20471;49.680;20.074;2022-07-18T13:59:48;1.62;;;1.25;;
34204;SDS011;20471;49.680;20.074;2022-07-18T14:02:15;2.33;;;1.50;;
34204;SDS011;20471;49.680;20.074;2022-07-18T14:04:41;2.52;;;1.47;;
34204;SDS011;20471;49.680;20.074;2022-07-18T14:07:08;4.17;;;1.50;;
34204;SDS011;20471;49.680;20.074;2022-07-18T14:09:36;3.00;;;1.52;;
34204;SDS011;20471;49.680;20.074;2022-07-18T14:12:04;3.80;;;1.80;;
34204;SDS011;20471;49.680;20.074;2022-07-18T14:14:31;3.55;;;1.50;;
34204;SDS011;20471;49.680;20.074;2022-07-18T14:16:57;4.33;;;1.27;;
34204;SDS011;20471;49.680;20.074;2022-07-18T14:19:24;3.85;;;1.75;;
34204;SDS011;20471;49.680;20.074;2022-07-18T14:21:51;6.75;;;1.40;;
34204;SDS011;20471;49.680;20.074;2022-07-18T14:24:17;4.33;;;1.55;;
34204;SDS011;20471;49.680;20.074;2022-07-18T14:26:44;4.42;;;1.17;;
34204;SDS011;20471;49.680;20.074;2022-07-18T14:29:10;4.42;;;1.67;;
34204;SDS011;20471;49.680;20.074;2022-07-18T14:31:37;2.50;;;1.40;;
34204;SDS011;20471;49.680;20.074;2022-07-18T14:34:03;3.20;;;1.40;;
34204;SDS011;20471;49.680;20.074;2022-07-18T14:36:30;3.30;;;1.55;;
34204;SDS011;20471;49.680;20.074;2022-07-18T14:38:56;4.22;;;1.35;;
34204;SDS011;20471;49.680;20.074;2022-07-18T14:41:23;5.08;;;1.98;;
34204;SDS011;20471;49.680;20.074;2022-07-18T14:43:50;3.70;;;1.70;;
34204;SDS011;20471;49.680;20.074;2022-07-18T14:46:16;3.15;;;1.70;;
34204;SDS011;20471;49.680;20.074;2022-07-18T14:48:43;2.30;;;1.52;;
34204;SDS011;20471;49.680;20.074;2022-07-18T14:51:09;3.55;;;1.50;;
34204;SDS011;20471;49.680;20.074;2022-07-18T14:53:36;5.25;;;1.67;;
34204;SDS011;20471;49.680;20.074;2022-07-18T14:56:02;4.03;;;1.80;;
34204;SDS011;20471;49.680;20.074;2022-07-18T14:58:29;4.65;;;1.42;;
34204;SDS011;20471;49.680;20.074;2022-07-18T15:00:56;2.70;;;1.67;;
34204;SDS011;20471;49.680;20.074;2022-07-18T15:03:22;3.58;;;1.50;;
34204;SDS011;20471;49.680;20.074;2022-07-18T15:05:49;2.25;;;1.70;;
34204;SDS011;20471;49.680;20.074;2022-07-18T15:08:15;3.80;;;1.57;;
34204;SDS011;20471;49.680;20.074;2022-07-18T15:10:42;2.65;;;1.57;;
34204;SDS011;20471;49.680;20.074;2022-07-18T15:13:08;1.55;;;1.15;;
34204;SDS011;20471;49.680;20.074;2022-07-18T15:15:35;2.85;;;1.70;;
34204;SDS011;20471;49.680;20.074;2022-07-18T15:18:02;5.67;;;1.77;;
34204;SDS011;20471;49.680;20.074;2022-07-18T15:20:28;5.20;;;1.60;;
34204;SDS011;20471;49.680;20.074;2022-07-18T15:22:55;2.25;;;1.30;;
34204;SDS011;20471;49.680;20.074;2022-07-18T15:25:21;3.22;;;1.45;;
34204;SDS011;20471;49.680;20.074;2022-07-18T15:27:48;4.70;;;1.92;;
34204;SDS011;20471;49.680;20.074;2022-07-18T15:30:15;3.40;;;1.37;;
34204;SDS011;20471;49.680;20.074;2022-07-18T15:32:41;4.20;;;1.50;;
34204;SDS011;20471;49.680;20.074;2022-07-18T15:35:08;2.37;;;1.72;;
34204;SDS011;20471;49.680;20.074;2022-07-18T15:37:34;1.62;;;1.52;;